sensor_id;sensor_type;location;lat;lon;timestamp;temperature;humidity
44990;DHT22;30723;51.206;3.326;2024-01-30T00:02:22;11.10;99.90
44990;DHT22;30723;51.206;3.326;2024-01-30T00:04:48;11.10;99.90
44990;DHT22;30723;51.206;3.326;2024-01-30T00:07:14;11.10;99.90
44990;DHT22;30723;51.206;3.326;2024-01-30T00:09:39;11.10;99.90
44990;DHT22;30723;51.206;3.326;2024-01-30T00:12:06;11.10;99.90
44990;DHT22;30723;51.206;3.326;2024-01-30T00:14:32;11.10;99.90
44990;DHT22;30723;51.206;3.326;2024-01-30T00:16:57;11.10;99.90
44990;DHT22;30723;51.206;3.326;2024-01-30T00:19:23;11.20;99.90
44990;DHT22;30723;51.206;3.326;2024-01-30T00:21:49;11.20;99.90
44990;DHT22;30723;51.206;3.326;2024-01-30T00:24:15;11.20;99.90
44990;DHT22;30723;51.206;3.326;2024-01-30T00:26:40;11.20;99.90
44990;DHT22;30723;51.206;3.326;2024-01-30T00:29:06;11.20;99.90
44990;DHT22;30723;51.206;3.326;2024-01-30T00:31:32;11.20;99.90
44990;DHT22;30723;51.206;3.326;2024-01-30T00:33:58;11.20;99.90
44990;DHT22;30723;51.206;3.326;2024-01-30T00:36:24;11.30;99.90
44990;DHT22;30723;51.206;3.326;2024-01-30T00:38:49;11.30;99.90
44990;DHT22;30723;51.206;3.326;2024-01-30T00:41:17;11.30;99.90
44990;DHT22;30723;51.206;3.326;2024-01-30T00:43:43;11.20;99.90
44990;DHT22;30723;51.206;3.326;2024-01-30T00:46:09;11.30;99.90
44990;DHT22;30723;51.206;3.326;2024-01-30T00:48:35;11.30;99.90
44990;DHT22;30723;51.206;3.326;2024-01-30T00:51:00;11.30;99.90
44990;DHT22;30723;51.206;3.326;2024-01-30T00:53:26;11.30;99.90
44990;DHT22;30723;51.206;3.326;2024-01-30T00:55:52;11.30;99.90
44990;DHT22;30723;51.206;3.326;2024-01-30T00:58:18;11.20;99.90
44990;DHT22;30723;51.206;3.326;2024-01-30T01:00:45;11.20;99.90
44990;DHT22;30723;51.206;3.326;2024-01-30T01:03:10;11.20;99.90
44990;DHT22;30723;51.206;3.326;2024-01-30T01:05:36;11.10;99.90
44990;DHT22;30723;51.206;3.326;2024-01-30T01:08:02;11.10;99.90
44990;DHT22;30723;51.206;3.326;2024-01-30T01:10:28;11.10;99.90
44990;DHT22;30723;51.206;3.326;2024-01-30T01:12:54;11.00;99.90
44990;DHT22;30723;51.206;3.326;2024-01-30T01:15:20;11.00;99.90
44990;DHT22;30723;51.206;3.326;2024-01-30T01:17:45;10.90;99.90
44990;DHT22;30723;51.206;3.326;2024-01-30T01:20:11;10.90;99.90
44990;DHT22;30723;51.206;3.326;2024-01-30T01:22:40;10.90;99.90
44990;DHT22;30723;51.206;3.326;2024-01-30T01:25:07;10.90;99.90
44990;DHT22;30723;51.206;3.326;2024-01-30T01:27:34;10.90;99.90
44990;DHT22;30723;51.206;3.326;2024-01-30T01:30:04;10.90;99.90
44990;DHT22;30723;51.206;3.326;2024-01-30T01:32:31;10.90;99.90
44990;DHT22;30723;51.206;3.326;2024-01-30T01:34:57;10.90;99.90
44990;DHT22;30723;51.206;3.326;2024-01-30T01:37:22;10.90;99.90
44990;DHT22;30723;51.206;3.326;2024-01-30T01:39:52;10.90;99.90
44990;DHT22;30723;51.206;3.326;2024-01-30T01:42:18;10.90;99.90
44990;DHT22;30723;51.206;3.326;2024-01-30T01:44:43;10.90;99.90
44990;DHT22;30723;51.206;3.326;2024-01-30T01:47:09;10.90;99.90
44990;DHT22;30723;51.206;3.326;2024-01-30T01:49:35;10.90;99.90
44990;DHT22;30723;51.206;3.326;2024-01-30T01:52:01;10.90;99.90
44990;DHT22;30723;51.206;3.326;2024-01-30T01:54:28;10.90;99.90
44990;DHT22;30723;51.206;3.326;2024-01-30T01:56:54;10.90;99.90
44990;DHT22;30723;51.206;3.326;2024-01-30T01:59:20;10.90;99.90
44990;DHT22;30723;51.206;3.326;2024-01-30T02:01:47;10.90;99.90
44990;DHT22;30723;51.206;3.326;2024-01-30T02:04:16;10.90;99.90
44990;DHT22;30723;51.206;3.326;2024-01-30T02:06:43;10.90;99.90
44990;DHT22;30723;51.206;3.326;2024-01-30T02:09:09;10.80;99.90
44990;DHT22;30723;51.206;3.326;2024-01-30T02:11:35;10.80;99.90
44990;DHT22;30723;51.206;3.326;2024-01-30T02:14:05;10.70;99.90
44990;DHT22;30723;51.206;3.326;2024-01-30T02:16:34;10.70;99.90
44990;DHT22;30723;51.206;3.326;2024-01-30T02:18:59;10.70;99.90
44990;DHT22;30723;51.206;3.326;2024-01-30T02:21:25;10.70;99.90
44990;DHT22;30723;51.206;3.326;2024-01-30T02:23:52;10.70;99.90
44990;DHT22;30723;51.206;3.326;2024-01-30T02:26:18;10.70;99.90
44990;DHT22;30723;51.206;3.326;2024-01-30T02:28:44;10.70;99.90
44990;DHT22;30723;51.206;3.326;2024-01-30T02:31:10;10.70;99.90
44990;DHT22;30723;51.206;3.326;2024-01-30T02:33:36;10.70;99.90
44990;DHT22;30723;51.206;3.326;2024-01-30T02:36:02;10.70;99.90
44990;DHT22;30723;51.206;3.326;2024-01-30T02:38:28;10.70;99.90
44990;DHT22;30723;51.206;3.326;2024-01-30T02:40:54;10.70;99.90
44990;DHT22;30723;51.206;3.326;2024-01-30T02:43:20;10.70;99.90
44990;DHT22;30723;51.206;3.326;2024-01-30T02:45:46;10.70;99.90
44990;DHT22;30723;51.206;3.326;2024-01-30T02:48:12;10.70;99.90
44990;DHT22;30723;51.206;3.326;2024-01-30T02:50:38;10.60;99.90
44990;DHT22;30723;51.206;3.326;2024-01-30T02:53:03;10.50;99.90
44990;DHT22;30723;51.206;3.326;2024-01-30T02:55:29;10.60;99.90
44990;DHT22;30723;51.206;3.326;2024-01-30T02:57:55;10.50;99.90
44990;DHT22;30723;51.206;3.326;2024-01-30T03:00:21;10.50;99.90
44990;DHT22;30723;51.206;3.326;2024-01-30T03:02:46;10.40;99.90
44990;DHT22;30723;51.206;3.326;2024-01-30T03:05:12;10.50;99.90
44990;DHT22;30723;51.206;3.326;2024-01-30T03:07:38;10.50;99.90
44990;DHT22;30723;51.206;3.326;2024-01-30T03:10:05;10.50;99.90
44990;DHT22;30723;51.206;3.326;2024-01-30T03:12:31;10.40;99.90
44990;DHT22;30723;51.206;3.326;2024-01-30T03:14:57;10.40;99.90
44990;DHT22;30723;51.206;3.326;2024-01-30T03:17:23;10.40;99.90
44990;DHT22;30723;51.206;3.326;2024-01-30T03:19:50;10.40;99.90
44990;DHT22;30723;51.206;3.326;2024-01-30T03:22:15;10.30;99.90
44990;DHT22;30723;51.206;3.326;2024-01-30T03:24:41;10.30;99.90
44990;DHT22;30723;51.206;3.326;2024-01-30T03:27:08;10.30;99.90
44990;DHT22;30723;51.206;3.326;2024-01-30T03:29:33;10.30;99.90
44990;DHT22;30723;51.206;3.326;2024-01-30T03:31:59;10.20;99.90
44990;DHT22;30723;51.206;3.326;2024-01-30T03:34:25;10.10;99.90
44990;DHT22;30723;51.206;3.326;2024-01-30T03:36:51;10.10;99.90
44990;DHT22;30723;51.206;3.326;2024-01-30T03:39:16;10.10;99.90
44990;DHT22;30723;51.206;3.326;2024-01-30T03:41:42;10.10;99.90
44990;DHT22;30723;51.206;3.326;2024-01-30T03:44:10;10.10;99.90
44990;DHT22;30723;51.206;3.326;2024-01-30T03:46:36;10.10;99.90
44990;DHT22;30723;51.206;3.326;2024-01-30T03:49:01;10.20;99.90
44990;DHT22;30723;51.206;3.326;2024-01-30T03:51:27;10.10;99.90
44990;DHT22;30723;51.206;3.326;2024-01-30T03:53:53;10.10;99.90
44990;DHT22;30723;51.206;3.326;2024-01-30T03:56:19;10.10;99.90
44990;DHT22;30723;51.206;3.326;2024-01-30T03:58:44;10.10;99.90
44990;DHT22;30723;51.206;3.326;2024-01-30T04:01:14;10.10;99.90
44990;DHT22;30723;51.206;3.326;2024-01-30T04:03:40;10.10;99.90
44990;DHT22;30723;51.206;3.326;2024-01-30T04:06:07;10.10;99.90
44990;DHT22;30723;51.206;3.326;2024-01-30T04:08:32;10.20;99.90
44990;DHT22;30723;51.206;3.326;2024-01-30T04:10:58;10.20;99.90
44990;DHT22;30723;51.206;3.326;2024-01-30T04:13:24;10.20;99.90
44990;DHT22;30723;51.206;3.326;2024-01-30T04:15:50;10.30;99.90
44990;DHT22;30723;51.206;3.326;2024-01-30T04:18:15;10.30;99.90
44990;DHT22;30723;51.206;3.326;2024-01-30T04:20:41;10.40;99.90
44990;DHT22;30723;51.206;3.326;2024-01-30T04:23:07;10.40;99.90
44990;DHT22;30723;51.206;3.326;2024-01-30T04:25:32;10.50;99.90
44990;DHT22;30723;51.206;3.326;2024-01-30T04:27:58;10.50;99.90
44990;DHT22;30723;51.206;3.326;2024-01-30T04:30:24;10.50;99.90
44990;DHT22;30723;51.206;3.326;2024-01-30T04:32:50;10.60;99.90
44990;DHT22;30723;51.206;3.326;2024-01-30T04:35:15;10.60;99.90
44990;DHT22;30723;51.206;3.326;2024-01-30T04:37:41;10.60;99.90
44990;DHT22;30723;51.206;3.326;2024-01-30T04:40:07;10.60;99.90
44990;DHT22;30723;51.206;3.326;2024-01-30T04:42:33;10.60;99.90
44990;DHT22;30723;51.206;3.326;2024-01-30T04:44:59;10.60;99.90
44990;DHT22;30723;51.206;3.326;2024-01-30T04:47:25;10.60;99.90
44990;DHT22;30723;51.206;3.326;2024-01-30T04:49:51;10.70;99.90
44990;DHT22;30723;51.206;3.326;2024-01-30T04:52:17;10.70;99.90
44990;DHT22;30723;51.206;3.326;2024-01-30T04:54:43;10.80;99.90
44990;DHT22;30723;51.206;3.326;2024-01-30T04:57:09;10.90;99.90
44990;DHT22;30723;51.206;3.326;2024-01-30T04:59:37;10.90;99.90
44990;DHT22;30723;51.206;3.326;2024-01-30T05:02:05;11.10;99.90
44990;DHT22;30723;51.206;3.326;2024-01-30T05:04:31;11.10;99.90
44990;DHT22;30723;51.206;3.326;2024-01-30T05:06:57;11.10;99.90
44990;DHT22;30723;51.206;3.326;2024-01-30T05:09:22;11.00;99.90
44990;DHT22;30723;51.206;3.326;2024-01-30T05:11:48;11.00;99.90
44990;DHT22;30723;51.206;3.326;2024-01-30T05:14:14;11.00;99.90
44990;DHT22;30723;51.206;3.326;2024-01-30T05:16:43;11.10;99.90
44990;DHT22;30723;51.206;3.326;2024-01-30T05:19:13;11.20;99.90
44990;DHT22;30723;51.206;3.326;2024-01-30T05:21:39;11.30;99.90
44990;DHT22;30723;51.206;3.326;2024-01-30T05:24:05;11.30;99.90
44990;DHT22;30723;51.206;3.326;2024-01-30T05:26:31;11.30;99.90
44990;DHT22;30723;51.206;3.326;2024-01-30T05:28:57;11.30;99.90
44990;DHT22;30723;51.206;3.326;2024-01-30T05:31:23;11.30;99.90
44990;DHT22;30723;51.206;3.326;2024-01-30T05:33:51;11.40;99.90
44990;DHT22;30723;51.206;3.326;2024-01-30T05:36:17;11.30;99.90
44990;DHT22;30723;51.206;3.326;2024-01-30T05:38:42;11.30;99.90
44990;DHT22;30723;51.206;3.326;2024-01-30T05:41:09;11.30;99.90
44990;DHT22;30723;51.206;3.326;2024-01-30T05:43:35;11.30;99.90
44990;DHT22;30723;51.206;3.326;2024-01-30T05:46:00;11.40;99.90
44990;DHT22;30723;51.206;3.326;2024-01-30T05:48:26;11.30;99.90
44990;DHT22;30723;51.206;3.326;2024-01-30T05:50:52;11.40;99.90
44990;DHT22;30723;51.206;3.326;2024-01-30T05:53:18;11.40;99.90
44990;DHT22;30723;51.206;3.326;2024-01-30T05:55:43;11.40;99.90
44990;DHT22;30723;51.206;3.326;2024-01-30T05:58:09;11.40;99.90
44990;DHT22;30723;51.206;3.326;2024-01-30T06:00:35;11.40;99.90
44990;DHT22;30723;51.206;3.326;2024-01-30T06:03:01;11.30;99.90
44990;DHT22;30723;51.206;3.326;2024-01-30T06:05:27;11.40;99.90
44990;DHT22;30723;51.206;3.326;2024-01-30T06:07:52;11.30;99.90
44990;DHT22;30723;51.206;3.326;2024-01-30T06:10:19;11.40;99.90
44990;DHT22;30723;51.206;3.326;2024-01-30T06:12:44;11.30;99.90
44990;DHT22;30723;51.206;3.326;2024-01-30T06:15:10;11.30;99.90
44990;DHT22;30723;51.206;3.326;2024-01-30T06:17:39;11.30;99.90
44990;DHT22;30723;51.206;3.326;2024-01-30T06:20:06;11.30;99.90
44990;DHT22;30723;51.206;3.326;2024-01-30T06:22:32;11.30;99.90
44990;DHT22;30723;51.206;3.326;2024-01-30T06:24:57;11.30;99.90
44990;DHT22;30723;51.206;3.326;2024-01-30T06:27:23;11.40;99.90
44990;DHT22;30723;51.206;3.326;2024-01-30T06:29:49;11.30;99.90
44990;DHT22;30723;51.206;3.326;2024-01-30T06:32:15;11.30;99.90
44990;DHT22;30723;51.206;3.326;2024-01-30T06:34:41;11.30;99.90
44990;DHT22;30723;51.206;3.326;2024-01-30T06:37:06;11.30;99.90
44990;DHT22;30723;51.206;3.326;2024-01-30T06:39:32;11.30;99.90
44990;DHT22;30723;51.206;3.326;2024-01-30T06:41:58;11.30;99.90
44990;DHT22;30723;51.206;3.326;2024-01-30T06:44:24;11.20;99.90
44990;DHT22;30723;51.206;3.326;2024-01-30T06:46:51;11.20;99.90
44990;DHT22;30723;51.206;3.326;2024-01-30T06:49:17;11.20;99.90
44990;DHT22;30723;51.206;3.326;2024-01-30T06:51:43;11.20;99.90
44990;DHT22;30723;51.206;3.326;2024-01-30T06:54:08;11.20;99.90
44990;DHT22;30723;51.206;3.326;2024-01-30T06:56:34;11.30;99.90
44990;DHT22;30723;51.206;3.326;2024-01-30T06:59:00;11.30;99.90
44990;DHT22;30723;51.206;3.326;2024-01-30T07:01:29;11.40;99.90
44990;DHT22;30723;51.206;3.326;2024-01-30T07:03:55;11.40;99.90
44990;DHT22;30723;51.206;3.326;2024-01-30T07:06:21;11.40;99.90
44990;DHT22;30723;51.206;3.326;2024-01-30T07:08:48;11.40;99.90
44990;DHT22;30723;51.206;3.326;2024-01-30T07:11:21;11.40;99.90
44990;DHT22;30723;51.206;3.326;2024-01-30T07:13:52;11.40;99.90
44990;DHT22;30723;51.206;3.326;2024-01-30T07:16:18;11.40;99.90
44990;DHT22;30723;51.206;3.326;2024-01-30T07:18:44;11.40;99.90
44990;DHT22;30723;51.206;3.326;2024-01-30T07:21:10;11.40;99.90
44990;DHT22;30723;51.206;3.326;2024-01-30T07:23:36;11.50;99.90
44990;DHT22;30723;51.206;3.326;2024-01-30T07:26:07;11.50;99.90
44990;DHT22;30723;51.206;3.326;2024-01-30T07:28:34;11.50;99.90
44990;DHT22;30723;51.206;3.326;2024-01-30T07:31:01;11.50;99.90
44990;DHT22;30723;51.206;3.326;2024-01-30T07:33:27;11.50;99.90
44990;DHT22;30723;51.206;3.326;2024-01-30T07:35:53;11.50;99.90
44990;DHT22;30723;51.206;3.326;2024-01-30T07:38:19;11.50;99.90
44990;DHT22;30723;51.206;3.326;2024-01-30T07:40:45;11.50;99.90
44990;DHT22;30723;51.206;3.326;2024-01-30T07:43:12;11.60;99.90
44990;DHT22;30723;51.206;3.326;2024-01-30T07:45:37;11.60;99.90
44990;DHT22;30723;51.206;3.326;2024-01-30T07:48:07;11.60;99.90
44990;DHT22;30723;51.206;3.326;2024-01-30T07:50:33;11.50;99.90
44990;DHT22;30723;51.206;3.326;2024-01-30T07:53:00;11.40;99.90
44990;DHT22;30723;51.206;3.326;2024-01-30T07:55:27;11.50;99.90
44990;DHT22;30723;51.206;3.326;2024-01-30T07:57:57;11.50;99.90
44990;DHT22;30723;51.206;3.326;2024-01-30T08:00:24;11.50;99.90
44990;DHT22;30723;51.206;3.326;2024-01-30T08:02:50;11.50;99.90
44990;DHT22;30723;51.206;3.326;2024-01-30T08:05:16;11.60;99.90
44990;DHT22;30723;51.206;3.326;2024-01-30T08:07:42;11.60;99.90
44990;DHT22;30723;51.206;3.326;2024-01-30T08:10:08;11.60;99.90
44990;DHT22;30723;51.206;3.326;2024-01-30T08:12:34;11.60;99.90
44990;DHT22;30723;51.206;3.326;2024-01-30T08:15:00;11.60;99.90
44990;DHT22;30723;51.206;3.326;2024-01-30T08:17:26;11.60;99.90
44990;DHT22;30723;51.206;3.326;2024-01-30T08:19:51;11.50;99.90
44990;DHT22;30723;51.206;3.326;2024-01-30T08:22:17;11.60;99.90
44990;DHT22;30723;51.206;3.326;2024-01-30T08:24:43;11.60;99.90
44990;DHT22;30723;51.206;3.326;2024-01-30T08:27:09;11.60;99.90
44990;DHT22;30723;51.206;3.326;2024-01-30T08:29:38;11.60;99.90
44990;DHT22;30723;51.206;3.326;2024-01-30T08:32:07;11.60;99.90
44990;DHT22;30723;51.206;3.326;2024-01-30T08:34:33;11.60;99.90
44990;DHT22;30723;51.206;3.326;2024-01-30T08:36:59;11.60;99.90
44990;DHT22;30723;51.206;3.326;2024-01-30T08:39:25;11.60;99.90
44990;DHT22;30723;51.206;3.326;2024-01-30T08:41:51;11.60;99.90
44990;DHT22;30723;51.206;3.326;2024-01-30T08:44:17;11.60;99.90
44990;DHT22;30723;51.206;3.326;2024-01-30T08:46:46;11.60;99.90
44990;DHT22;30723;51.206;3.326;2024-01-30T08:49:12;11.50;99.90
44990;DHT22;30723;51.206;3.326;2024-01-30T08:51:39;11.50;99.90
44990;DHT22;30723;51.206;3.326;2024-01-30T08:54:05;11.40;99.90
44990;DHT22;30723;51.206;3.326;2024-01-30T08:56:31;11.40;99.90
44990;DHT22;30723;51.206;3.326;2024-01-30T08:58:56;11.40;99.90
44990;DHT22;30723;51.206;3.326;2024-01-30T09:01:22;11.40;99.90
44990;DHT22;30723;51.206;3.326;2024-01-30T09:03:48;11.40;99.90
44990;DHT22;30723;51.206;3.326;2024-01-30T09:06:14;11.40;99.90
44990;DHT22;30723;51.206;3.326;2024-01-30T09:08:39;11.40;99.90
44990;DHT22;30723;51.206;3.326;2024-01-30T09:11:10;11.30;99.90
44990;DHT22;30723;51.206;3.326;2024-01-30T09:13:36;11.20;99.90
44990;DHT22;30723;51.206;3.326;2024-01-30T09:16:02;11.10;99.90
44990;DHT22;30723;51.206;3.326;2024-01-30T09:18:28;11.00;99.90
44990;DHT22;30723;51.206;3.326;2024-01-30T09:20:54;10.90;99.90
44990;DHT22;30723;51.206;3.326;2024-01-30T09:23:19;10.80;99.90
44990;DHT22;30723;51.206;3.326;2024-01-30T09:25:45;10.80;99.90
44990;DHT22;30723;51.206;3.326;2024-01-30T09:28:11;10.70;99.90
44990;DHT22;30723;51.206;3.326;2024-01-30T09:30:37;10.70;99.90
44990;DHT22;30723;51.206;3.326;2024-01-30T09:33:03;10.70;99.90
44990;DHT22;30723;51.206;3.326;2024-01-30T09:35:29;10.70;99.90
44990;DHT22;30723;51.206;3.326;2024-01-30T09:37:55;10.80;99.90
44990;DHT22;30723;51.206;3.326;2024-01-30T09:40:22;10.80;99.90
44990;DHT22;30723;51.206;3.326;2024-01-30T09:42:50;10.80;99.90
44990;DHT22;30723;51.206;3.326;2024-01-30T09:45:19;11.00;99.90
44990;DHT22;30723;51.206;3.326;2024-01-30T09:47:46;10.90;99.90
44990;DHT22;30723;51.206;3.326;2024-01-30T09:50:14;11.00;99.90
44990;DHT22;30723;51.206;3.326;2024-01-30T09:52:40;10.90;99.90
44990;DHT22;30723;51.206;3.326;2024-01-30T09:55:07;11.00;99.90
44990;DHT22;30723;51.206;3.326;2024-01-30T09:57:34;11.00;99.90
44990;DHT22;30723;51.206;3.326;2024-01-30T10:00:01;11.00;99.90
44990;DHT22;30723;51.206;3.326;2024-01-30T10:02:27;11.00;99.90
44990;DHT22;30723;51.206;3.326;2024-01-30T10:04:53;11.00;99.90
44990;DHT22;30723;51.206;3.326;2024-01-30T10:07:19;11.00;99.90
44990;DHT22;30723;51.206;3.326;2024-01-30T10:09:45;10.90;99.90
44990;DHT22;30723;51.206;3.326;2024-01-30T10:12:12;10.90;99.90
44990;DHT22;30723;51.206;3.326;2024-01-30T10:14:41;10.80;99.90
44990;DHT22;30723;51.206;3.326;2024-01-30T10:17:11;10.90;99.90
44990;DHT22;30723;51.206;3.326;2024-01-30T10:19:40;10.90;99.90
44990;DHT22;30723;51.206;3.326;2024-01-30T10:22:07;10.80;99.90
44990;DHT22;30723;51.206;3.326;2024-01-30T10:24:36;10.70;99.90
44990;DHT22;30723;51.206;3.326;2024-01-30T10:27:02;10.80;99.90
44990;DHT22;30723;51.206;3.326;2024-01-30T10:29:28;10.80;99.90
44990;DHT22;30723;51.206;3.326;2024-01-30T10:32:04;10.80;99.90
44990;DHT22;30723;51.206;3.326;2024-01-30T10:34:31;10.80;99.90
44990;DHT22;30723;51.206;3.326;2024-01-30T10:37:09;10.80;99.90
44990;DHT22;30723;51.206;3.326;2024-01-30T10:39:42;10.80;99.90
44990;DHT22;30723;51.206;3.326;2024-01-30T10:42:13;10.70;99.90
44990;DHT22;30723;51.206;3.326;2024-01-30T10:47:21;10.80;99.90
44990;DHT22;30723;51.206;3.326;2024-01-30T10:49:52;10.80;99.90
44990;DHT22;30723;51.206;3.326;2024-01-30T10:52:18;10.80;99.90
44990;DHT22;30723;51.206;3.326;2024-01-30T10:54:45;10.80;99.90
44990;DHT22;30723;51.206;3.326;2024-01-30T10:57:11;10.60;99.90
44990;DHT22;30723;51.206;3.326;2024-01-30T10:59:38;10.60;99.90
44990;DHT22;30723;51.206;3.326;2024-01-30T11:02:05;10.70;99.90
44990;DHT22;30723;51.206;3.326;2024-01-30T11:04:58;10.70;99.90
44990;DHT22;30723;51.206;3.326;2024-01-30T11:07:25;10.60;99.90
44990;DHT22;30723;51.206;3.326;2024-01-30T11:12:25;10.60;99.90
44990;DHT22;30723;51.206;3.326;2024-01-30T11:17:40;10.60;99.90
44990;DHT22;30723;51.206;3.326;2024-01-30T11:22:42;10.60;99.90
44990;DHT22;30723;51.206;3.326;2024-01-30T11:25:16;10.50;99.90
44990;DHT22;30723;51.206;3.326;2024-01-30T11:27:43;10.70;99.90
44990;DHT22;30723;51.206;3.326;2024-01-30T11:30:10;10.60;99.90
44990;DHT22;30723;51.206;3.326;2024-01-30T11:32:36;10.60;99.90
44990;DHT22;30723;51.206;3.326;2024-01-30T11:35:06;10.50;99.90
44990;DHT22;30723;51.206;3.326;2024-01-30T11:37:37;10.40;99.90
44990;DHT22;30723;51.206;3.326;2024-01-30T11:40:07;10.30;99.90
44990;DHT22;30723;51.206;3.326;2024-01-30T11:42:34;10.10;99.90
44990;DHT22;30723;51.206;3.326;2024-01-30T11:45:02;10.10;99.90
44990;DHT22;30723;51.206;3.326;2024-01-30T11:47:28;10.10;99.90
44990;DHT22;30723;51.206;3.326;2024-01-30T11:49:54;10.20;99.90
44990;DHT22;30723;51.206;3.326;2024-01-30T11:52:20;10.20;99.90
44990;DHT22;30723;51.206;3.326;2024-01-30T11:54:46;10.30;99.90
44990;DHT22;30723;51.206;3.326;2024-01-30T11:57:12;10.30;99.90
44990;DHT22;30723;51.206;3.326;2024-01-30T11:59:38;10.20;99.90
44990;DHT22;30723;51.206;3.326;2024-01-30T12:02:04;10.20;99.90
44990;DHT22;30723;51.206;3.326;2024-01-30T12:04:30;10.10;99.90
44990;DHT22;30723;51.206;3.326;2024-01-30T12:06:56;10.10;99.90
44990;DHT22;30723;51.206;3.326;2024-01-30T12:09:22;10.10;99.90
44990;DHT22;30723;51.206;3.326;2024-01-30T12:11:48;10.10;99.90
44990;DHT22;30723;51.206;3.326;2024-01-30T12:14:16;10.20;99.90
44990;DHT22;30723;51.206;3.326;2024-01-30T12:16:42;10.10;99.90
44990;DHT22;30723;51.206;3.326;2024-01-30T12:19:08;10.10;99.90
44990;DHT22;30723;51.206;3.326;2024-01-30T12:21:34;10.20;99.90
44990;DHT22;30723;51.206;3.326;2024-01-30T12:24:01;10.20;99.90
44990;DHT22;30723;51.206;3.326;2024-01-30T12:26:27;10.10;99.90
44990;DHT22;30723;51.206;3.326;2024-01-30T12:28:56;10.10;99.90
44990;DHT22;30723;51.206;3.326;2024-01-30T12:31:32;10.10;99.90
44990;DHT22;30723;51.206;3.326;2024-01-30T12:33:59;10.10;99.90
44990;DHT22;30723;51.206;3.326;2024-01-30T12:36:26;10.10;99.90
44990;DHT22;30723;51.206;3.326;2024-01-30T12:38:52;10.10;99.90
44990;DHT22;30723;51.206;3.326;2024-01-30T12:41:17;10.10;99.90
44990;DHT22;30723;51.206;3.326;2024-01-30T12:43:44;10.20;99.90
44990;DHT22;30723;51.206;3.326;2024-01-30T12:46:10;10.20;99.90
44990;DHT22;30723;51.206;3.326;2024-01-30T12:48:35;10.10;99.90
44990;DHT22;30723;51.206;3.326;2024-01-30T12:51:01;10.20;99.90
44990;DHT22;30723;51.206;3.326;2024-01-30T12:53:27;10.10;99.90
44990;DHT22;30723;51.206;3.326;2024-01-30T12:55:53;10.00;99.90
44990;DHT22;30723;51.206;3.326;2024-01-30T12:58:20;10.10;99.90
44990;DHT22;30723;51.206;3.326;2024-01-30T13:00:45;10.00;99.90
44990;DHT22;30723;51.206;3.326;2024-01-30T13:03:12;10.00;99.90
44990;DHT22;30723;51.206;3.326;2024-01-30T13:05:38;10.00;99.90
44990;DHT22;30723;51.206;3.326;2024-01-30T13:08:04;10.10;99.90
44990;DHT22;30723;51.206;3.326;2024-01-30T13:10:30;10.10;99.90
44990;DHT22;30723;51.206;3.326;2024-01-30T13:12:56;10.20;99.90
44990;DHT22;30723;51.206;3.326;2024-01-30T13:15:22;10.10;99.90
44990;DHT22;30723;51.206;3.326;2024-01-30T13:17:49;10.20;99.90
44990;DHT22;30723;51.206;3.326;2024-01-30T13:20:15;10.10;99.90
44990;DHT22;30723;51.206;3.326;2024-01-30T13:22:51;9.90;99.90
44990;DHT22;30723;51.206;3.326;2024-01-30T13:25:16;9.70;99.90
44990;DHT22;30723;51.206;3.326;2024-01-30T13:27:42;9.60;99.90
44990;DHT22;30723;51.206;3.326;2024-01-30T13:30:08;9.50;99.90
44990;DHT22;30723;51.206;3.326;2024-01-30T13:32:37;9.50;99.90
44990;DHT22;30723;51.206;3.326;2024-01-30T13:35:03;9.50;99.90
44990;DHT22;30723;51.206;3.326;2024-01-30T13:37:29;9.50;99.90
44990;DHT22;30723;51.206;3.326;2024-01-30T13:39:55;9.60;99.90
44990;DHT22;30723;51.206;3.326;2024-01-30T13:42:21;9.60;99.90
44990;DHT22;30723;51.206;3.326;2024-01-30T13:44:47;9.70;99.90
44990;DHT22;30723;51.206;3.326;2024-01-30T13:47:13;9.70;99.90
44990;DHT22;30723;51.206;3.326;2024-01-30T13:49:39;9.80;99.90
44990;DHT22;30723;51.206;3.326;2024-01-30T13:52:05;9.70;99.90
44990;DHT22;30723;51.206;3.326;2024-01-30T13:54:31;9.70;99.90
44990;DHT22;30723;51.206;3.326;2024-01-30T13:56:57;9.50;99.90
44990;DHT22;30723;51.206;3.326;2024-01-30T13:59:23;9.50;99.90
44990;DHT22;30723;51.206;3.326;2024-01-30T14:01:51;9.40;99.90
44990;DHT22;30723;51.206;3.326;2024-01-30T14:04:17;9.40;99.90
44990;DHT22;30723;51.206;3.326;2024-01-30T14:06:43;9.40;99.90
44990;DHT22;30723;51.206;3.326;2024-01-30T14:09:08;9.40;99.90
44990;DHT22;30723;51.206;3.326;2024-01-30T14:11:35;9.40;99.90
44990;DHT22;30723;51.206;3.326;2024-01-30T14:14:01;9.50;99.90
44990;DHT22;30723;51.206;3.326;2024-01-30T14:16:27;9.60;99.90
44990;DHT22;30723;51.206;3.326;2024-01-30T14:18:54;9.70;99.90
44990;DHT22;30723;51.206;3.326;2024-01-30T14:21:20;9.50;99.90
44990;DHT22;30723;51.206;3.326;2024-01-30T14:23:45;9.50;99.90
44990;DHT22;30723;51.206;3.326;2024-01-30T14:26:12;9.50;99.90
44990;DHT22;30723;51.206;3.326;2024-01-30T14:28:38;9.40;99.90
44990;DHT22;30723;51.206;3.326;2024-01-30T14:31:04;9.50;99.90
44990;DHT22;30723;51.206;3.326;2024-01-30T14:33:30;9.40;99.90
44990;DHT22;30723;51.206;3.326;2024-01-30T14:35:56;9.40;99.90
44990;DHT22;30723;51.206;3.326;2024-01-30T14:38:22;9.20;99.90
44990;DHT22;30723;51.206;3.326;2024-01-30T14:40:47;9.20;99.90
44990;DHT22;30723;51.206;3.326;2024-01-30T14:43:13;9.20;99.90
44990;DHT22;30723;51.206;3.326;2024-01-30T14:45:39;9.20;99.90
44990;DHT22;30723;51.206;3.326;2024-01-30T14:48:05;9.20;99.90
44990;DHT22;30723;51.206;3.326;2024-01-30T14:50:32;9.20;99.90
44990;DHT22;30723;51.206;3.326;2024-01-30T14:52:58;9.30;99.90
44990;DHT22;30723;51.206;3.326;2024-01-30T14:55:23;9.20;99.90
44990;DHT22;30723;51.206;3.326;2024-01-30T14:57:50;9.10;99.90
44990;DHT22;30723;51.206;3.326;2024-01-30T15:00:16;9.20;99.90
44990;DHT22;30723;51.206;3.326;2024-01-30T15:02:42;9.20;99.90
44990;DHT22;30723;51.206;3.326;2024-01-30T15:05:08;9.10;99.90
44990;DHT22;30723;51.206;3.326;2024-01-30T15:07:37;9.10;99.90
44990;DHT22;30723;51.206;3.326;2024-01-30T15:10:03;9.10;99.90
44990;DHT22;30723;51.206;3.326;2024-01-30T15:12:29;9.10;99.90
44990;DHT22;30723;51.206;3.326;2024-01-30T15:14:54;9.10;99.90
44990;DHT22;30723;51.206;3.326;2024-01-30T15:17:20;9.10;99.90
44990;DHT22;30723;51.206;3.326;2024-01-30T15:19:49;9.00;99.90
44990;DHT22;30723;51.206;3.326;2024-01-30T15:22:16;9.00;99.90
44990;DHT22;30723;51.206;3.326;2024-01-30T15:24:41;9.00;99.90
44990;DHT22;30723;51.206;3.326;2024-01-30T15:27:07;9.00;99.90
44990;DHT22;30723;51.206;3.326;2024-01-30T15:29:33;8.90;99.90
44990;DHT22;30723;51.206;3.326;2024-01-30T15:31:59;8.90;99.90
44990;DHT22;30723;51.206;3.326;2024-01-30T15:34:25;8.90;99.90
44990;DHT22;30723;51.206;3.326;2024-01-30T15:36:50;8.90;99.90
44990;DHT22;30723;51.206;3.326;2024-01-30T15:39:17;8.90;99.90